createdAt,value
2017-07-30T00:00:31.223Z,2.53
2017-07-30T00:02:59.496Z,3.50
2017-07-30T00:05:27.761Z,3.10
2017-07-30T00:07:55.237Z,2.40
2017-07-30T00:10:31.116Z,2.50
2017-07-30T00:12:58.611Z,2.90
2017-07-30T00:15:32.448Z,3.03
2017-07-30T00:18:00.712Z,2.10
2017-07-30T00:20:31.478Z,3.00
2017-07-30T00:23:00.977Z,2.00
2017-07-30T00:25:29.233Z,2.43
2017-07-30T00:27:57.089Z,2.27
2017-07-30T00:30:24.696Z,3.00
2017-07-30T00:32:52.199Z,2.23
2017-07-30T00:35:19.695Z,3.23
2017-07-30T00:37:53.402Z,2.20
2017-07-30T00:40:21.692Z,2.53
2017-07-30T00:42:49.182Z,2.27
2017-07-30T00:45:16.998Z,2.37
2017-07-30T00:47:45.282Z,2.40
2017-07-30T00:50:12.849Z,2.33
2017-07-30T00:52:40.383Z,2.30
2017-07-30T00:55:08.630Z,2.77
2017-07-30T00:57:41.907Z,2.50
2017-07-30T01:00:09.430Z,2.80
2017-07-30T01:02:41.714Z,2.07
2017-07-30T01:05:09.197Z,2.30
2017-07-30T01:07:36.684Z,3.13
2017-07-30T01:10:04.305Z,2.90
2017-07-30T01:12:42.388Z,2.20
2017-07-30T01:15:11.074Z,3.40
2017-07-30T01:17:39.350Z,2.50
2017-07-30T01:20:06.843Z,2.43
2017-07-30T01:22:34.384Z,2.90
2017-07-30T01:25:12.187Z,3.03
2017-07-30T01:27:39.686Z,2.97
2017-07-30T01:30:07.422Z,2.70
2017-07-30T01:32:35.260Z,2.53
2017-07-30T01:35:11.313Z,2.70
2017-07-30T01:37:39.903Z,3.50
2017-07-30T01:40:10.956Z,2.50
2017-07-30T01:42:41.790Z,2.57
2017-07-30T01:45:09.334Z,2.53
2017-07-30T01:47:36.829Z,2.30
2017-07-30T01:50:04.370Z,2.37
2017-07-30T01:52:31.851Z,2.60
2017-07-30T01:54:59.387Z,2.67
2017-07-30T01:57:26.942Z,2.40
2017-07-30T01:59:54.794Z,2.73
2017-07-30T02:02:30.560Z,3.20
2017-07-30T02:04:58.428Z,3.40
2017-07-30T02:07:25.924Z,2.70
2017-07-30T02:10:01.254Z,3.37
2017-07-30T02:12:31.693Z,3.07
2017-07-30T02:14:59.211Z,2.70
2017-07-30T02:17:26.709Z,2.87
2017-07-30T02:20:01.167Z,2.53
2017-07-30T02:22:31.004Z,2.67
2017-07-30T02:25:01.494Z,2.03
2017-07-30T02:27:29.243Z,3.60
2017-07-30T02:29:56.722Z,3.00
2017-07-30T02:32:24.321Z,2.23
2017-07-30T02:34:51.875Z,2.60
2017-07-30T02:37:22.372Z,3.10
2017-07-30T02:39:49.962Z,2.20
2017-07-30T02:42:23.261Z,2.37
2017-07-30T02:44:51.019Z,2.97
2017-07-30T02:47:18.513Z,3.07
2017-07-30T02:49:46.001Z,2.87
2017-07-30T02:52:21.316Z,3.47
2017-07-30T02:54:48.797Z,2.40
2017-07-30T02:57:16.390Z,2.97
2017-07-30T02:59:51.135Z,2.63
2017-07-30T03:02:18.992Z,3.00
2017-07-30T03:04:47.272Z,2.87
2017-07-30T03:07:20.976Z,2.20
2017-07-30T03:09:51.510Z,2.90
2017-07-30T03:12:22.340Z,2.93
2017-07-30T03:14:49.823Z,2.37
2017-07-30T03:17:17.367Z,2.47
2017-07-30T03:19:50.650Z,2.97
2017-07-30T03:22:18.203Z,2.90
2017-07-30T03:24:45.732Z,2.63
2017-07-30T03:27:21.231Z,2.37
2017-07-30T03:29:49.086Z,3.13
2017-07-30T03:32:22.443Z,2.70
2017-07-30T03:34:50.235Z,2.70
2017-07-30T03:37:17.731Z,3.30
2017-07-30T03:39:51.546Z,2.43
2017-07-30T03:42:19.069Z,2.50
2017-07-30T03:44:46.557Z,3.20
2017-07-30T03:47:14.060Z,3.37
2017-07-30T03:49:41.546Z,2.40
2017-07-30T03:52:09.315Z,2.20
2017-07-30T03:54:36.798Z,2.90
2017-07-30T03:57:04.327Z,2.53
2017-07-30T03:59:41.714Z,2.60
2017-07-30T04:02:09.271Z,2.90
2017-07-30T04:04:36.836Z,2.63
2017-07-30T04:07:10.639Z,2.70
2017-07-30T04:09:41.779Z,3.13
2017-07-30T04:14:50.118Z,2.57
2017-07-30T04:17:17.600Z,2.47
2017-07-30T04:19:51.886Z,1.90
2017-07-30T04:22:19.383Z,2.20
2017-07-30T04:24:46.875Z,2.17
2017-07-30T04:27:20.620Z,2.40
2017-07-30T04:29:48.159Z,2.23
2017-07-30T04:32:22.819Z,2.13
2017-07-30T04:34:50.368Z,2.40
2017-07-30T04:37:17.949Z,1.90
2017-07-30T04:39:51.264Z,1.90
2017-07-30T04:42:22.351Z,3.07
2017-07-30T04:44:50.627Z,2.53
2017-07-30T04:47:18.189Z,2.20
2017-07-30T04:49:52.001Z,2.57
2017-07-30T04:52:19.499Z,2.77
2017-07-30T04:54:53.359Z,2.57
2017-07-30T04:57:20.921Z,3.03
2017-07-30T04:59:48.678Z,2.40
2017-07-30T05:02:16.967Z,2.73
2017-07-30T05:04:44.544Z,2.30
2017-07-30T05:07:20.376Z,2.17
2017-07-30T05:09:48.627Z,2.50
2017-07-30T05:12:16.427Z,3.40
2017-07-30T05:14:43.983Z,2.93
2017-07-30T05:17:22.076Z,3.63
2017-07-30T05:19:50.358Z,2.90
2017-07-30T05:22:21.403Z,3.30
2017-07-30T05:24:51.990Z,3.00
2017-07-30T05:27:22.521Z,2.33
2017-07-30T05:29:50.028Z,3.00
2017-07-30T05:32:17.534Z,2.73
2017-07-30T05:34:51.178Z,2.53
2017-07-30T05:37:20.671Z,3.27
2017-07-30T05:39:48.166Z,2.30
2017-07-30T05:42:15.698Z,2.77
2017-07-30T05:44:43.283Z,2.50
2017-07-30T05:47:21.064Z,2.60
2017-07-30T05:49:51.784Z,2.17
2017-07-30T05:52:22.853Z,2.80
2017-07-30T05:54:50.346Z,2.53
2017-07-30T05:57:17.857Z,2.07
2017-07-30T05:59:45.359Z,2.07
2017-07-30T06:02:20.681Z,2.10
2017-07-30T06:04:48.204Z,2.87
2017-07-30T06:07:15.706Z,1.70
2017-07-30T06:09:43.537Z,1.53
2017-07-30T06:12:11.039Z,1.87
2017-07-30T06:14:38.534Z,2.00
2017-07-30T06:17:12.250Z,2.40
2017-07-30T06:19:39.748Z,1.60
2017-07-30T06:22:07.242Z,1.80
2017-07-30T06:24:34.729Z,1.80
2017-07-30T06:27:02.476Z,1.40
2017-07-30T06:29:31.581Z,1.63
2017-07-30T06:32:01.077Z,1.60
2017-07-30T06:34:28.665Z,1.73
2017-07-30T06:37:02.147Z,1.93
2017-07-30T06:39:30.955Z,1.93
2017-07-30T06:41:58.471Z,1.70
2017-07-30T06:44:26.283Z,1.50
2017-07-30T06:46:53.776Z,2.13
2017-07-30T06:49:21.284Z,1.40
2017-07-30T06:51:48.798Z,1.50
2017-07-30T06:54:22.060Z,1.67
2017-07-30T06:56:50.901Z,2.00
2017-07-30T06:59:21.324Z,1.63
2017-07-30T07:01:52.105Z,1.60
2017-07-30T07:04:19.659Z,1.80
2017-07-30T07:06:47.152Z,1.47
2017-07-30T07:09:14.655Z,1.50
2017-07-30T07:11:51.788Z,1.33
2017-07-30T07:14:19.287Z,1.70
2017-07-30T07:16:52.942Z,1.50
2017-07-30T07:19:20.715Z,1.67
2017-07-30T07:21:48.213Z,1.33
2017-07-30T07:24:22.072Z,2.07
2017-07-30T07:26:49.563Z,1.90
2017-07-30T07:29:17.061Z,1.83
2017-07-30T07:31:51.210Z,1.63
2017-07-30T07:34:18.704Z,1.70
2017-07-30T07:36:46.515Z,1.73
2017-07-30T07:39:14.011Z,2.30
2017-07-30T07:41:51.865Z,2.00
2017-07-30T07:44:19.372Z,1.90
2017-07-30T07:46:46.868Z,1.60
2017-07-30T07:49:14.465Z,1.53
2017-07-30T07:51:51.932Z,1.60
2017-07-30T07:54:20.550Z,1.83
2017-07-30T07:56:48.038Z,1.80
2017-07-30T07:59:15.531Z,1.17
2017-07-30T08:01:51.309Z,1.83
2017-07-30T08:04:22.041Z,1.60
2017-07-30T08:06:49.807Z,2.07
2017-07-30T08:09:23.096Z,1.70
2017-07-30T08:11:50.930Z,1.33
2017-07-30T08:14:22.442Z,1.40
2017-07-30T08:16:50.764Z,0.97
2017-07-30T08:19:21.983Z,1.10
2017-07-30T08:21:52.977Z,1.47
2017-07-30T08:24:21.166Z,1.20
2017-07-30T08:26:51.881Z,1.33
2017-07-30T08:29:22.544Z,1.50
2017-07-30T08:31:51.118Z,1.80
2017-07-30T08:34:21.754Z,1.47
2017-07-30T08:36:52.277Z,1.83
2017-07-30T08:39:20.119Z,1.33
2017-07-30T08:41:47.610Z,1.10
2017-07-30T08:44:15.139Z,0.83
2017-07-30T08:46:50.579Z,1.30
2017-07-30T08:49:21.523Z,1.27
2017-07-30T08:51:52.164Z,1.30
2017-07-30T08:54:22.692Z,1.10
2017-07-30T08:56:50.426Z,1.13
2017-07-30T08:59:18.959Z,1.20
2017-07-30T09:01:46.468Z,1.27
2017-07-30T09:04:21.012Z,1.20
2017-07-30T09:06:48.524Z,1.23
2017-07-30T09:09:16.023Z,1.10
2017-07-30T09:11:43.516Z,1.17
2017-07-30T09:14:11.017Z,1.30
2017-07-30T09:16:38.507Z,1.30
2017-07-30T09:19:05.988Z,1.10
2017-07-30T09:21:33.779Z,1.10
2017-07-30T09:24:11.738Z,1.37
2017-07-30T09:26:42.990Z,1.00
2017-07-30T09:29:11.225Z,0.80
2017-07-30T09:31:38.806Z,0.70
2017-07-30T09:34:07.400Z,1.13
2017-07-30T09:36:40.874Z,1.27
2017-07-30T09:39:08.656Z,1.20
2017-07-30T09:41:36.144Z,1.00
2017-07-30T09:44:11.143Z,0.80
2017-07-30T09:46:42.687Z,0.90
2017-07-30T09:49:11.115Z,1.17
2017-07-30T09:51:38.587Z,1.57
2017-07-30T09:54:12.439Z,0.87
2017-07-30T09:56:39.997Z,1.07
2017-07-30T09:59:08.279Z,1.30
2017-07-30T10:01:35.785Z,1.10
2017-07-30T10:04:10.356Z,1.40
2017-07-30T10:06:38.950Z,0.67
2017-07-30T10:09:06.454Z,1.10
2017-07-30T10:11:33.952Z,1.00
2017-07-30T10:14:02.226Z,1.20
2017-07-30T10:16:29.798Z,0.63
2017-07-30T10:18:58.403Z,1.20
2017-07-30T10:21:25.914Z,1.17
2017-07-30T10:23:53.421Z,0.90
2017-07-30T10:26:20.988Z,0.97
2017-07-30T10:28:48.538Z,0.90
2017-07-30T10:31:22.386Z,0.97
2017-07-30T10:33:49.907Z,0.80
2017-07-30T10:36:17.551Z,1.00
2017-07-30T10:38:52.210Z,0.80
2017-07-30T10:41:19.700Z,0.80
2017-07-30T10:43:47.184Z,0.83
2017-07-30T10:46:21.763Z,0.70
2017-07-30T10:48:52.564Z,0.63
2017-07-30T10:51:20.420Z,1.17
2017-07-30T10:53:47.902Z,0.90
2017-07-30T10:56:21.469Z,0.90
2017-07-30T10:58:49.769Z,0.57
2017-07-30T11:01:20.911Z,0.80
2017-07-30T11:03:51.383Z,0.90
2017-07-30T11:06:18.869Z,0.60
2017-07-30T11:08:52.700Z,0.80
2017-07-30T11:11:20.198Z,0.60
2017-07-30T11:13:47.695Z,0.73
2017-07-30T11:16:15.197Z,0.67
2017-07-30T11:18:50.681Z,0.87
2017-07-30T11:21:18.490Z,0.70
2017-07-30T11:23:45.988Z,1.10
2017-07-30T11:26:20.981Z,0.93
2017-07-30T11:28:48.472Z,0.67
2017-07-30T11:31:21.999Z,0.70
2017-07-30T11:33:52.590Z,0.67
2017-07-30T11:36:20.086Z,0.67
2017-07-30T11:38:50.900Z,0.50
2017-07-30T11:41:18.383Z,0.80
2017-07-30T11:43:51.853Z,0.90
2017-07-30T11:46:22.586Z,1.10
2017-07-30T11:48:51.548Z,0.60
2017-07-30T11:51:19.065Z,0.83
2017-07-30T11:53:46.556Z,0.70
2017-07-30T11:56:14.062Z,0.67
2017-07-30T11:58:41.559Z,1.90
2017-07-30T12:01:10.165Z,1.20
2017-07-30T12:03:40.990Z,0.93
2017-07-30T12:06:11.734Z,0.87
2017-07-30T12:08:40.968Z,1.10
2017-07-30T12:11:08.446Z,0.70
2017-07-30T12:13:35.940Z,0.70
2017-07-30T12:16:10.591Z,1.53
2017-07-30T12:18:41.724Z,0.67
2017-07-30T12:21:09.225Z,0.80
2017-07-30T12:23:42.855Z,0.50
2017-07-30T12:26:21.222Z,0.90
2017-07-30T12:28:48.992Z,0.50
2017-07-30T12:31:16.495Z,0.43
2017-07-30T12:33:51.170Z,0.83
2017-07-30T12:36:21.676Z,0.70
2017-07-30T12:38:52.607Z,0.70
2017-07-30T12:41:20.077Z,0.50
2017-07-30T12:43:51.450Z,0.60
2017-07-30T12:46:22.069Z,0.67
2017-07-30T12:48:49.568Z,0.60
2017-07-30T12:51:23.057Z,0.63
2017-07-30T12:53:50.549Z,0.60
2017-07-30T12:56:19.085Z,0.80
2017-07-30T12:58:46.570Z,0.50
2017-07-30T13:01:14.058Z,0.87
2017-07-30T13:03:51.512Z,0.80
2017-07-30T13:06:19.013Z,0.57
2017-07-30T13:08:46.514Z,0.80
2017-07-30T13:11:14.006Z,1.13
2017-07-30T13:13:50.585Z,0.60
2017-07-30T13:16:21.835Z,0.93
2017-07-30T13:18:51.123Z,0.73
2017-07-30T13:21:19.384Z,0.77
2017-07-30T13:23:46.882Z,0.60
2017-07-30T13:26:14.384Z,0.80
2017-07-30T13:28:52.603Z,0.90
2017-07-30T13:31:20.086Z,1.23
2017-07-30T13:33:53.640Z,1.07
2017-07-30T13:36:21.137Z,1.40
2017-07-30T13:38:49.395Z,1.03
2017-07-30T13:41:17.203Z,1.53
2017-07-30T13:43:44.696Z,1.00
2017-07-30T13:46:12.203Z,1.03
2017-07-30T13:48:41.827Z,0.60
2017-07-30T13:51:11.041Z,0.87
2017-07-30T13:53:41.968Z,0.90
2017-07-30T13:56:11.275Z,1.10
2017-07-30T13:58:38.764Z,0.60
2017-07-30T14:01:06.520Z,0.90
2017-07-30T14:03:34.022Z,1.10
2017-07-30T14:06:01.517Z,0.97
2017-07-30T14:08:32.863Z,1.20
2017-07-30T14:11:00.351Z,0.93
2017-07-30T14:13:30.854Z,1.00
2017-07-30T14:16:01.899Z,0.90
2017-07-30T14:18:29.392Z,1.10
2017-07-30T14:20:56.888Z,0.87
2017-07-30T14:23:31.820Z,0.93
2017-07-30T14:26:00.103Z,1.30
2017-07-30T14:28:28.355Z,1.07
2017-07-30T14:30:55.857Z,1.40
2017-07-30T14:33:31.187Z,1.07
2017-07-30T14:35:58.687Z,1.20
2017-07-30T14:38:32.400Z,0.97
2017-07-30T14:41:01.404Z,1.10
2017-07-30T14:43:32.517Z,1.00
2017-07-30T14:46:01.130Z,1.10
2017-07-30T14:48:28.650Z,0.80
2017-07-30T14:51:02.126Z,1.00
2017-07-30T14:53:31.126Z,1.10
2017-07-30T14:56:01.888Z,1.10
2017-07-30T14:58:32.700Z,0.70
2017-07-30T15:01:00.898Z,0.80
2017-07-30T15:03:28.428Z,1.20
2017-07-30T15:06:01.951Z,1.57
2017-07-30T15:08:30.886Z,0.90
2017-07-30T15:10:58.391Z,1.40
2017-07-30T15:13:25.892Z,1.20
2017-07-30T15:16:00.772Z,1.30
2017-07-30T15:18:28.354Z,0.80
2017-07-30T15:21:01.978Z,1.20
2017-07-30T15:23:29.502Z,1.10
2017-07-30T15:25:57.039Z,1.33
2017-07-30T15:28:24.818Z,1.00
2017-07-30T15:31:02.304Z,1.00
2017-07-30T15:33:31.463Z,1.23
2017-07-30T15:35:58.977Z,1.00
2017-07-30T15:38:32.550Z,1.37
2017-07-30T15:41:00.803Z,1.80
2017-07-30T15:43:28.296Z,1.07
2017-07-30T15:45:55.796Z,1.17
2017-07-30T15:48:31.127Z,0.80
2017-07-30T15:50:58.645Z,0.77
2017-07-30T15:53:32.329Z,1.10
2017-07-30T15:56:00.127Z,1.07
2017-07-30T15:58:30.833Z,0.90
2017-07-30T16:00:58.330Z,1.17
2017-07-30T16:03:25.820Z,0.83
2017-07-30T16:05:53.310Z,1.27
2017-07-30T16:08:31.758Z,1.17
2017-07-30T16:10:59.238Z,1.27
2017-07-30T16:13:26.715Z,1.30
2017-07-30T16:15:54.222Z,1.17
2017-07-30T16:18:32.151Z,1.47
2017-07-30T16:21:00.015Z,1.33
2017-07-30T16:23:27.491Z,1.27
2017-07-30T16:26:01.668Z,1.27
2017-07-30T16:28:32.339Z,1.03
2017-07-30T16:31:00.824Z,0.93
2017-07-30T16:33:28.339Z,1.40
2017-07-30T16:36:01.722Z,1.23
2017-07-30T16:38:32.980Z,1.27
2017-07-30T16:41:01.318Z,1.07
2017-07-30T16:43:31.822Z,0.80
2017-07-30T16:46:02.489Z,1.00
2017-07-30T16:48:29.978Z,1.00
2017-07-30T16:50:57.478Z,1.00
2017-07-30T16:53:24.978Z,0.90
2017-07-30T16:55:52.888Z,1.13
2017-07-30T16:58:20.694Z,0.90
2017-07-30T17:00:51.313Z,1.10
2017-07-30T17:03:22.207Z,1.30
2017-07-30T17:05:51.457Z,1.40
2017-07-30T17:08:18.987Z,1.60
2017-07-30T17:10:46.488Z,1.40
2017-07-30T17:13:21.140Z,1.10
2017-07-30T17:15:49.010Z,1.07
2017-07-30T17:18:22.343Z,1.33
2017-07-30T17:20:49.844Z,1.33
2017-07-30T17:23:18.106Z,1.20
2017-07-30T17:25:45.589Z,1.60
2017-07-30T17:28:13.123Z,0.90
2017-07-30T17:30:40.626Z,1.30
2017-07-30T17:33:08.504Z,1.00
2017-07-30T17:35:36.010Z,1.60
2017-07-30T17:38:11.385Z,1.60
2017-07-30T17:40:38.885Z,0.97
2017-07-30T17:43:12.546Z,2.00
2017-07-30T17:45:40.046Z,1.50
2017-07-30T17:48:10.775Z,1.50
2017-07-30T17:50:41.778Z,1.27
2017-07-30T17:53:10.911Z,1.10
2017-07-30T17:55:38.416Z,1.50
2017-07-30T17:58:11.679Z,1.13
2017-07-30T18:00:42.542Z,1.07
2017-07-30T18:03:11.296Z,1.00
2017-07-30T18:05:42.656Z,1.20
2017-07-30T18:08:10.144Z,1.00
2017-07-30T18:10:37.919Z,1.00
2017-07-30T18:13:05.411Z,1.17
2017-07-30T18:15:32.900Z,1.23
2017-07-30T18:18:01.832Z,1.23
2017-07-30T18:20:31.101Z,1.20
2017-07-30T18:23:01.979Z,1.40
2017-07-30T18:25:31.094Z,1.53
2017-07-30T18:28:02.012Z,1.17
2017-07-30T18:30:31.139Z,1.47
2017-07-30T18:33:02.032Z,1.60
2017-07-30T18:35:31.252Z,1.60
2017-07-30T18:37:58.746Z,1.03
2017-07-30T18:40:32.078Z,1.97
2017-07-30T18:43:00.352Z,1.43
2017-07-30T18:45:27.843Z,1.40
2017-07-30T18:48:01.940Z,1.73
2017-07-30T18:50:29.817Z,1.27
2017-07-30T18:53:03.079Z,1.60
2017-07-30T18:55:30.880Z,1.20
2017-07-30T18:58:01.466Z,1.53
2017-07-30T19:00:32.356Z,1.20
2017-07-30T19:03:00.865Z,1.63
2017-07-30T19:05:28.359Z,1.40
2017-07-30T19:08:01.688Z,1.37
2017-07-30T19:10:29.999Z,1.30
2017-07-30T19:13:01.161Z,1.47
2017-07-30T19:15:31.690Z,1.23
2017-07-30T19:18:02.629Z,1.10
2017-07-30T19:20:30.916Z,2.00
2017-07-30T19:22:58.413Z,1.40
2017-07-30T19:25:31.942Z,1.50
2017-07-30T19:27:59.451Z,1.30
2017-07-30T19:30:27.328Z,1.23
2017-07-30T19:32:54.825Z,1.23
2017-07-30T19:35:22.318Z,1.10
2017-07-30T19:37:50.929Z,1.50
2017-07-30T19:40:21.905Z,2.00
2017-07-30T19:42:49.395Z,1.60
2017-07-30T19:45:16.904Z,1.57
2017-07-30T19:47:44.400Z,2.00
2017-07-30T19:50:12.207Z,1.37
2017-07-30T19:52:40.725Z,1.60
2017-07-30T19:55:11.263Z,1.17
2017-07-30T19:57:41.773Z,1.77
2017-07-30T20:00:09.267Z,1.10
2017-07-30T20:02:37.043Z,1.10
2017-07-30T20:05:04.538Z,1.80
2017-07-30T20:07:32.031Z,1.53
2017-07-30T20:10:00.965Z,1.30
2017-07-30T20:12:32.264Z,1.10
2017-07-30T20:14:59.747Z,1.70
2017-07-30T20:17:33.279Z,1.73
2017-07-30T20:20:10.895Z,1.37
2017-07-30T20:22:38.740Z,1.17
2017-07-30T20:25:12.095Z,1.40
2017-07-30T20:27:39.913Z,1.27
2017-07-30T20:30:13.229Z,1.50
2017-07-30T20:32:41.281Z,1.40
2017-07-30T20:35:08.775Z,1.50
2017-07-30T20:37:42.192Z,1.10
2017-07-30T20:40:10.714Z,1.47
2017-07-30T20:42:41.136Z,1.20
2017-07-30T20:45:08.884Z,1.60
2017-07-30T20:47:43.071Z,1.23
2017-07-30T20:50:11.146Z,1.33
2017-07-30T20:52:38.643Z,1.90
2017-07-30T20:55:12.918Z,1.50
2017-07-30T20:57:40.403Z,1.60
2017-07-30T21:00:07.883Z,1.63
2017-07-30T21:02:35.392Z,1.47
2017-07-30T21:05:11.237Z,1.87
2017-07-30T21:07:39.055Z,2.37
2017-07-30T21:10:12.325Z,1.60
2017-07-30T21:12:40.114Z,1.13
2017-07-30T21:15:10.715Z,1.73
2017-07-30T21:17:41.697Z,1.80
2017-07-30T21:20:10.705Z,1.30
2017-07-30T21:22:38.204Z,1.63
2017-07-30T21:25:05.708Z,1.10
2017-07-30T21:27:33.212Z,2.13
2017-07-30T21:30:00.715Z,1.37
2017-07-30T21:32:28.199Z,1.50
2017-07-30T21:34:56.040Z,1.60
2017-07-30T21:37:31.311Z,1.80
2017-07-30T21:40:02.531Z,1.47
2017-07-30T21:42:31.679Z,1.60
2017-07-30T21:45:02.772Z,1.77
2017-07-30T21:47:30.273Z,1.30
2017-07-30T21:50:01.530Z,1.70
2017-07-30T21:52:29.055Z,1.60
2017-07-30T21:55:02.314Z,1.60
2017-07-30T21:57:31.418Z,1.23
2017-07-30T22:00:02.662Z,1.67
2017-07-30T22:02:30.158Z,1.40
2017-07-30T22:04:57.916Z,1.80
2017-07-30T22:07:25.403Z,1.43
2017-07-30T22:09:52.893Z,1.20
2017-07-30T22:12:20.997Z,1.77
2017-07-30T22:14:52.284Z,1.63
2017-07-30T22:17:19.770Z,1.63
2017-07-30T22:19:48.043Z,2.17
2017-07-30T22:22:21.756Z,1.47
2017-07-30T22:24:50.343Z,1.70
2017-07-30T22:27:17.867Z,1.37
2017-07-30T22:29:45.359Z,1.53
2017-07-30T22:32:12.877Z,1.73
2017-07-30T22:34:40.763Z,1.40
2017-07-30T22:37:08.261Z,1.40
2017-07-30T22:39:41.535Z,1.50
2017-07-30T22:42:09.406Z,3.13
2017-07-30T22:44:42.896Z,2.00
2017-07-30T22:47:10.663Z,1.50
2017-07-30T22:49:38.152Z,1.77
2017-07-30T22:52:05.640Z,1.43
2017-07-30T22:54:33.463Z,1.10
2017-07-30T22:57:00.950Z,1.47
2017-07-30T22:59:32.098Z,1.53
2017-07-30T23:01:59.605Z,1.53
2017-07-30T23:04:27.111Z,1.60
2017-07-30T23:06:54.919Z,2.47
2017-07-30T23:12:20.579Z,1.40
2017-07-30T23:14:48.056Z,1.53
2017-07-30T23:17:15.905Z,1.70
2017-07-30T23:19:51.219Z,1.50
2017-07-30T23:22:19.841Z,2.13
2017-07-30T23:24:47.344Z,1.73
2017-07-30T23:27:21.380Z,1.50
2017-07-30T23:29:49.628Z,1.43
2017-07-30T23:32:17.112Z,1.40
2017-07-30T23:34:50.769Z,1.60
2017-07-30T23:37:18.262Z,1.70
2017-07-30T23:39:51.862Z,1.90
2017-07-30T23:42:20.678Z,1.83
2017-07-30T23:44:51.516Z,1.70
2017-07-30T23:47:20.716Z,2.13
2017-07-30T23:49:48.965Z,1.40
2017-07-30T23:52:22.487Z,2.03
2017-07-30T23:54:50.336Z,2.00
2017-07-30T23:57:20.776Z,1.70
2017-07-30T23:59:48.273Z,1.70
